Hauptseite
METAR-TAF:

METAR-TAF

Flughäfen :

Fliegerhorst Holzdorf

Holzdorf, Deutschland

Breite: 51-46N, Länge: 013-11E, Höhe: 79 m

Beobachtung

Neuester Wetterbericht von vor 1 Stunde und 6 Minuten, um 22:20 UTC
Wind 4 kt aus Nord
Temperatur 10°C
Luftfeuchtigkeit 71%
Luftdruck 1022 hPa
Sichtweite 10 km oder mehr
Durchbrochene Bewölkung in der Höhe von 22000 ft

METAR: ETSH 302220Z 36004KT 9999 BKN220 10/05 Q1022 BLU+

Zeit: 01:26 (23:26 UTC)


TAF: fehlend

Wetterbeobachtungen und Prognosen von mehr als 4000 Flughäfen (METAR und TAF Bericht).

Die verfügbaren Stationen werden durch gelbe und rote Markierungen auf der Karte dargestellt.

Führen Sie die Maus auf sie, um den Namen der Station zu sehen.

Darauf klicken, um die Beobachtung von Wetterbeobachtungen und Prognosen zu sehen.

Um die Karte zu ändern : klicken Sie auf den grünen Tasten mit einem schwarzen Kreuz Zum Vergrößern, auf den grünen Button mit einem Gedankenstrich zu verkleinern, oder auf die grünen Pfeile für benachbarte Karten.


METAR-TAF: